sensor_id;sensor_type;location;lat;lon;timestamp;pressure;altitude;pressure_sealevel;temperature
76381;BMP280;65202;52.520;10.528;2024-01-11T00:00:48;102817.50;;;-6.53
76381;BMP280;65202;52.520;10.528;2024-01-11T00:03:16;102809.72;;;-6.56
76381;BMP280;65202;52.520;10.528;2024-01-11T00:05:44;102818.16;;;-6.54
76381;BMP280;65202;52.520;10.528;2024-01-11T00:08:12;102798.34;;;-6.33
76381;BMP280;65202;52.520;10.528;2024-01-11T00:10:39;102803.50;;;-6.03
76381;BMP280;65202;52.520;10.528;2024-01-11T00:13:07;102803.81;;;-6.18
76381;BMP280;65202;52.520;10.528;2024-01-11T00:15:36;102824.41;;;-6.78
76381;BMP280;65202;52.520;10.528;2024-01-11T00:18:04;102839.28;;;-6.82
76381;BMP280;65202;52.520;10.528;2024-01-11T00:20:33;102841.28;;;-6.90
76381;BMP280;65202;52.520;10.528;2024-01-11T00:23:03;102822.19;;;-6.09
76381;BMP280;65202;52.520;10.528;2024-01-11T00:25:32;102822.81;;;-6.05
76381;BMP280;65202;52.520;10.528;2024-01-11T00:27:59;102816.41;;;-6.04
76381;BMP280;65202;52.520;10.528;2024-01-11T00:30:29;102819.47;;;-6.00
76381;BMP280;65202;52.520;10.528;2024-01-11T00:32:57;102823.19;;;-6.36
76381;BMP280;65202;52.520;10.528;2024-01-11T00:35:25;102817.41;;;-6.31
76381;BMP280;65202;52.520;10.528;2024-01-11T00:37:53;102809.25;;;-5.97
76381;BMP280;65202;52.520;10.528;2024-01-11T00:40:21;102790.19;;;-5.94
76381;BMP280;65202;52.520;10.528;2024-01-11T00:42:49;102790.88;;;-6.01
76381;BMP280;65202;52.520;10.528;2024-01-11T00:45:23;102786.13;;;-6.22
76381;BMP280;65202;52.520;10.528;2024-01-11T00:47:51;102775.88;;;-6.15
76381;BMP280;65202;52.520;10.528;2024-01-11T00:50:21;102773.44;;;-6.09
76381;BMP280;65202;52.520;10.528;2024-01-11T00:52:49;102783.72;;;-6.28
76381;BMP280;65202;52.520;10.528;2024-01-11T00:55:16;102790.53;;;-6.76
76381;BMP280;65202;52.520;10.528;2024-01-11T00:57:44;102780.28;;;-6.12
76381;BMP280;65202;52.520;10.528;2024-01-11T01:00:12;102779.16;;;-6.09
76381;BMP280;65202;52.520;10.528;2024-01-11T01:02:43;102769.31;;;-5.92
76381;BMP280;65202;52.520;10.528;2024-01-11T01:05:11;102786.69;;;-6.07
76381;BMP280;65202;52.520;10.528;2024-01-11T01:07:41;102801.97;;;-6.48
76381;BMP280;65202;52.520;10.528;2024-01-11T01:10:13;102790.53;;;-6.20
76381;BMP280;65202;52.520;10.528;2024-01-11T01:12:45;102797.09;;;-6.48
76381;BMP280;65202;52.520;10.528;2024-01-11T01:15:16;102791.66;;;-6.23
76381;BMP280;65202;52.520;10.528;2024-01-11T01:17:43;102786.75;;;-6.18
76381;BMP280;65202;52.520;10.528;2024-01-11T01:20:12;102793.97;;;-6.47
76381;BMP280;65202;52.520;10.528;2024-01-11T01:22:40;102787.63;;;-6.63
76381;BMP280;65202;52.520;10.528;2024-01-11T01:25:11;102786.53;;;-6.76
76381;BMP280;65202;52.520;10.528;2024-01-11T01:27:38;102781.75;;;-6.36
76381;BMP280;65202;52.520;10.528;2024-01-11T01:30:07;102785.91;;;-6.24
76381;BMP280;65202;52.520;10.528;2024-01-11T01:32:36;102783.75;;;-6.39
76381;BMP280;65202;52.520;10.528;2024-01-11T01:35:04;102788.53;;;-6.17
76381;BMP280;65202;52.520;10.528;2024-01-11T01:37:31;102777.06;;;-6.34
76381;BMP280;65202;52.520;10.528;2024-01-11T01:39:59;102763.75;;;-6.25
76381;BMP280;65202;52.520;10.528;2024-01-11T01:42:27;102757.47;;;-6.13
76381;BMP280;65202;52.520;10.528;2024-01-11T01:44:54;102762.28;;;-6.41
76381;BMP280;65202;52.520;10.528;2024-01-11T01:47:21;102774.03;;;-6.50
76381;BMP280;65202;52.520;10.528;2024-01-11T01:49:49;102774.16;;;-6.83
76381;BMP280;65202;52.520;10.528;2024-01-11T01:52:19;102768.22;;;-7.01
76381;BMP280;65202;52.520;10.528;2024-01-11T01:54:47;102776.66;;;-7.37
76381;BMP280;65202;52.520;10.528;2024-01-11T01:57:17;102760.41;;;-6.82
76381;BMP280;65202;52.520;10.528;2024-01-11T01:59:49;102762.81;;;-6.66
76381;BMP280;65202;52.520;10.528;2024-01-11T02:02:20;102769.22;;;-6.61
76381;BMP280;65202;52.520;10.528;2024-01-11T02:04:49;102765.22;;;-6.49
76381;BMP280;65202;52.520;10.528;2024-01-11T02:07:17;102761.19;;;-6.49
76381;BMP280;65202;52.520;10.528;2024-01-11T02:09:46;102764.78;;;-6.63
76381;BMP280;65202;52.520;10.528;2024-01-11T02:12:13;102759.03;;;-6.64
76381;BMP280;65202;52.520;10.528;2024-01-11T02:14:42;102751.03;;;-6.57
76381;BMP280;65202;52.520;10.528;2024-01-11T02:17:10;102745.25;;;-6.52
76381;BMP280;65202;52.520;10.528;2024-01-11T02:19:37;102739.97;;;-6.55
76381;BMP280;65202;52.520;10.528;2024-01-11T02:22:11;102747.94;;;-6.56
76381;BMP280;65202;52.520;10.528;2024-01-11T02:24:46;102749.69;;;-6.50
76381;BMP280;65202;52.520;10.528;2024-01-11T02:27:14;102762.06;;;-6.48
76381;BMP280;65202;52.520;10.528;2024-01-11T02:29:42;102751.06;;;-6.68
76381;BMP280;65202;52.520;10.528;2024-01-11T02:32:10;102745.28;;;-6.58
76381;BMP280;65202;52.520;10.528;2024-01-11T02:34:42;102751.31;;;-6.67
76381;BMP280;65202;52.520;10.528;2024-01-11T02:37:14;102749.28;;;-6.64
76381;BMP280;65202;52.520;10.528;2024-01-11T02:39:42;102743.09;;;-6.62
76381;BMP280;65202;52.520;10.528;2024-01-11T02:42:12;102748.88;;;-6.67
76381;BMP280;65202;52.520;10.528;2024-01-11T02:44:43;102755.50;;;-6.60
76381;BMP280;65202;52.520;10.528;2024-01-11T02:47:11;102755.09;;;-6.74
76381;BMP280;65202;52.520;10.528;2024-01-11T02:49:39;102758.38;;;-6.68
76381;BMP280;65202;52.520;10.528;2024-01-11T02:52:07;102754.88;;;-6.81
76381;BMP280;65202;52.520;10.528;2024-01-11T02:54:35;102759.53;;;-6.77
76381;BMP280;65202;52.520;10.528;2024-01-11T02:57:04;102762.66;;;-6.78
76381;BMP280;65202;52.520;10.528;2024-01-11T02:59:32;102760.44;;;-6.87
76381;BMP280;65202;52.520;10.528;2024-01-11T03:02:03;102771.81;;;-7.26
76381;BMP280;65202;52.520;10.528;2024-01-11T03:04:31;102765.75;;;-6.79
76381;BMP280;65202;52.520;10.528;2024-01-11T03:07:01;102776.63;;;-7.04
76381;BMP280;65202;52.520;10.528;2024-01-11T03:09:29;102781.97;;;-7.40
76381;BMP280;65202;52.520;10.528;2024-01-11T03:11:57;102801.13;;;-8.17
76381;BMP280;65202;52.520;10.528;2024-01-11T03:14:25;102782.84;;;-7.83
76381;BMP280;65202;52.520;10.528;2024-01-11T03:16:54;102781.75;;;-7.41
76381;BMP280;65202;52.520;10.528;2024-01-11T03:19:47;102766.72;;;-7.49
76381;BMP280;65202;52.520;10.528;2024-01-11T03:22:16;102778.88;;;-7.11
76381;BMP280;65202;52.520;10.528;2024-01-11T03:24:47;102780.59;;;-6.99
76381;BMP280;65202;52.520;10.528;2024-01-11T03:27:18;102779.09;;;-7.15
76381;BMP280;65202;52.520;10.528;2024-01-11T03:29:46;102769.31;;;-7.04
76381;BMP280;65202;52.520;10.528;2024-01-11T03:32:14;102758.03;;;-6.93
76381;BMP280;65202;52.520;10.528;2024-01-11T03:34:45;102762.66;;;-6.94
76381;BMP280;65202;52.520;10.528;2024-01-11T03:37:13;102757.81;;;-7.00
76381;BMP280;65202;52.520;10.528;2024-01-11T03:39:41;102761.13;;;-6.99
76381;BMP280;65202;52.520;10.528;2024-01-11T03:42:09;102787.91;;;-6.99
76381;BMP280;65202;52.520;10.528;2024-01-11T03:44:40;102787.97;;;-7.54
76381;BMP280;65202;52.520;10.528;2024-01-11T03:47:11;102773.78;;;-7.24
76381;BMP280;65202;52.520;10.528;2024-01-11T03:49:39;102769.78;;;-7.01
76381;BMP280;65202;52.520;10.528;2024-01-11T03:52:07;102775.78;;;-7.10
76381;BMP280;65202;52.520;10.528;2024-01-11T03:54:41;102789.06;;;-7.19
76381;BMP280;65202;52.520;10.528;2024-01-11T03:57:12;102801.00;;;-7.43
76381;BMP280;65202;52.520;10.528;2024-01-11T03:59:40;102796.56;;;-7.56
76381;BMP280;65202;52.520;10.528;2024-01-11T04:02:09;102790.84;;;-7.62
76381;BMP280;65202;52.520;10.528;2024-01-11T04:04:36;102771.38;;;-7.62
76381;BMP280;65202;52.520;10.528;2024-01-11T04:07:04;102763.59;;;-7.10
76381;BMP280;65202;52.520;10.528;2024-01-11T04:09:31;102763.78;;;-7.03
76381;BMP280;65202;52.520;10.528;2024-01-11T04:11:58;102756.75;;;-7.13
76381;BMP280;65202;52.520;10.528;2024-01-11T04:14:26;102753.84;;;-7.05
76381;BMP280;65202;52.520;10.528;2024-01-11T04:16:53;102757.41;;;-7.03
76381;BMP280;65202;52.520;10.528;2024-01-11T04:19:21;102770.69;;;-7.06
76381;BMP280;65202;52.520;10.528;2024-01-11T04:21:50;102770.69;;;-7.28
76381;BMP280;65202;52.520;10.528;2024-01-11T04:24:18;102763.84;;;-7.14
76381;BMP280;65202;52.520;10.528;2024-01-11T04:26:45;102759.63;;;-7.37
76381;BMP280;65202;52.520;10.528;2024-01-11T04:29:13;102756.28;;;-7.16
76381;BMP280;65202;52.520;10.528;2024-01-11T04:31:40;102755.19;;;-7.07
76381;BMP280;65202;52.520;10.528;2024-01-11T04:34:08;102765.81;;;-7.06
76381;BMP280;65202;52.520;10.528;2024-01-11T04:36:39;102770.63;;;-6.90
76381;BMP280;65202;52.520;10.528;2024-01-11T04:39:07;102763.41;;;-7.12
76381;BMP280;65202;52.520;10.528;2024-01-11T04:41:35;102775.56;;;-7.17
76381;BMP280;65202;52.520;10.528;2024-01-11T04:44:06;102765.78;;;-7.01
76381;BMP280;65202;52.520;10.528;2024-01-11T04:46:34;102773.06;;;-6.90
76381;BMP280;65202;52.520;10.528;2024-01-11T04:49:02;102777.72;;;-6.86
76381;BMP280;65202;52.520;10.528;2024-01-11T04:51:29;102797.91;;;-6.98
76381;BMP280;65202;52.520;10.528;2024-01-11T04:53:57;102795.00;;;-6.95
76381;BMP280;65202;52.520;10.528;2024-01-11T04:56:24;102795.47;;;-7.20
76381;BMP280;65202;52.520;10.528;2024-01-11T04:58:52;102784.84;;;-7.09
76381;BMP280;65202;52.520;10.528;2024-01-11T05:01:19;102783.53;;;-7.24
76381;BMP280;65202;52.520;10.528;2024-01-11T05:03:47;102779.97;;;-7.04
76381;BMP280;65202;52.520;10.528;2024-01-11T05:06:21;102787.03;;;-7.00
76381;BMP280;65202;52.520;10.528;2024-01-11T05:08:51;102778.63;;;-7.07
76381;BMP280;65202;52.520;10.528;2024-01-11T05:11:23;102780.00;;;-7.09
76381;BMP280;65202;52.520;10.528;2024-01-11T05:13:52;102789.72;;;-7.09
76381;BMP280;65202;52.520;10.528;2024-01-11T05:16:25;102764.25;;;-7.00
76381;BMP280;65202;52.520;10.528;2024-01-11T05:18:55;102764.94;;;-7.12
76381;BMP280;65202;52.520;10.528;2024-01-11T05:21:24;102758.75;;;-7.10
76381;BMP280;65202;52.520;10.528;2024-01-11T05:23:53;102753.59;;;-7.01
76381;BMP280;65202;52.520;10.528;2024-01-11T05:26:20;102740.56;;;-7.01
76381;BMP280;65202;52.520;10.528;2024-01-11T05:28:48;102743.22;;;-7.05
76381;BMP280;65202;52.520;10.528;2024-01-11T05:31:15;102772.03;;;-7.19
76381;BMP280;65202;52.520;10.528;2024-01-11T05:33:45;102755.41;;;-7.05
76381;BMP280;65202;52.520;10.528;2024-01-11T05:36:14;102743.69;;;-7.08
76381;BMP280;65202;52.520;10.528;2024-01-11T05:38:41;102733.94;;;-7.13
76381;BMP280;65202;52.520;10.528;2024-01-11T05:41:09;102720.63;;;-7.04
76381;BMP280;65202;52.520;10.528;2024-01-11T05:43:37;102735.66;;;-6.96
76381;BMP280;65202;52.520;10.528;2024-01-11T05:46:07;102751.63;;;-7.03
76381;BMP280;65202;52.520;10.528;2024-01-11T05:48:34;102749.66;;;-7.11
76381;BMP280;65202;52.520;10.528;2024-01-11T05:51:02;102749.22;;;-7.09
76381;BMP280;65202;52.520;10.528;2024-01-11T05:53:30;102744.56;;;-7.18
76381;BMP280;65202;52.520;10.528;2024-01-11T05:56:00;102729.06;;;-7.13
76381;BMP280;65202;52.520;10.528;2024-01-11T05:58:28;102724.00;;;-7.09
76381;BMP280;65202;52.520;10.528;2024-01-11T06:00:56;102737.72;;;-7.15
76381;BMP280;65202;52.520;10.528;2024-01-11T06:03:24;102734.81;;;-7.18
76381;BMP280;65202;52.520;10.528;2024-01-11T06:05:52;102725.53;;;-7.15
76381;BMP280;65202;52.520;10.528;2024-01-11T06:08:19;102734.38;;;-7.05
76381;BMP280;65202;52.520;10.528;2024-01-11T06:10:47;102724.44;;;-7.12
76381;BMP280;65202;52.520;10.528;2024-01-11T06:13:14;102729.28;;;-7.06
76381;BMP280;65202;52.520;10.528;2024-01-11T06:15:42;102731.28;;;-7.09
76381;BMP280;65202;52.520;10.528;2024-01-11T06:18:09;102734.81;;;-7.07
76381;BMP280;65202;52.520;10.528;2024-01-11T06:20:37;102730.84;;;-7.23
76381;BMP280;65202;52.520;10.528;2024-01-11T06:23:04;102745.69;;;-7.22
76381;BMP280;65202;52.520;10.528;2024-01-11T06:25:32;102758.50;;;-7.06
76381;BMP280;65202;52.520;10.528;2024-01-11T06:27:59;102752.31;;;-7.15
76381;BMP280;65202;52.520;10.528;2024-01-11T06:30:27;102745.25;;;-7.25
76381;BMP280;65202;52.520;10.528;2024-01-11T06:32:54;102734.88;;;-7.29
76381;BMP280;65202;52.520;10.528;2024-01-11T06:35:22;102752.53;;;-7.14
76381;BMP280;65202;52.520;10.528;2024-01-11T06:37:49;102762.69;;;-7.11
76381;BMP280;65202;52.520;10.528;2024-01-11T06:40:18;102762.06;;;-7.26
76381;BMP280;65202;52.520;10.528;2024-01-11T06:42:46;102762.75;;;-7.22
76381;BMP280;65202;52.520;10.528;2024-01-11T06:45:14;102782.66;;;-7.24
76381;BMP280;65202;52.520;10.528;2024-01-11T06:47:41;102774.66;;;-7.12
76381;BMP280;65202;52.520;10.528;2024-01-11T06:50:09;102770.22;;;-7.04
76381;BMP280;65202;52.520;10.528;2024-01-11T06:52:39;102785.50;;;-7.10
76381;BMP280;65202;52.520;10.528;2024-01-11T06:55:07;102787.72;;;-7.06
76381;BMP280;65202;52.520;10.528;2024-01-11T06:57:35;102795.25;;;-7.10
76381;BMP280;65202;52.520;10.528;2024-01-11T07:00:03;102788.81;;;-7.10
76381;BMP280;65202;52.520;10.528;2024-01-11T07:02:31;102794.81;;;-7.08
76381;BMP280;65202;52.520;10.528;2024-01-11T07:04:58;102795.91;;;-7.11
76381;BMP280;65202;52.520;10.528;2024-01-11T07:07:26;102787.03;;;-7.00
76381;BMP280;65202;52.520;10.528;2024-01-11T07:09:54;102777.97;;;-6.95
76381;BMP280;65202;52.520;10.528;2024-01-11T07:12:22;102778.88;;;-7.00
76381;BMP280;65202;52.520;10.528;2024-01-11T07:14:50;102790.38;;;-7.10
76381;BMP280;65202;52.520;10.528;2024-01-11T07:17:17;102804.28;;;-6.98
76381;BMP280;65202;52.520;10.528;2024-01-11T07:19:45;102824.25;;;-7.06
76381;BMP280;65202;52.520;10.528;2024-01-11T07:22:13;102822.69;;;-7.11
76381;BMP280;65202;52.520;10.528;2024-01-11T07:24:40;102817.13;;;-6.99
76381;BMP280;65202;52.520;10.528;2024-01-11T07:27:07;102814.69;;;-6.99
76381;BMP280;65202;52.520;10.528;2024-01-11T07:29:35;102791.22;;;-7.04
76381;BMP280;65202;52.520;10.528;2024-01-11T07:32:03;102784.63;;;-7.11
76381;BMP280;65202;52.520;10.528;2024-01-11T07:34:31;102792.34;;;-7.13
76381;BMP280;65202;52.520;10.528;2024-01-11T07:37:00;102792.34;;;-6.97
76381;BMP280;65202;52.520;10.528;2024-01-11T07:39:27;102790.78;;;-7.02
76381;BMP280;65202;52.520;10.528;2024-01-11T07:41:55;102781.75;;;-7.03
76381;BMP280;65202;52.520;10.528;2024-01-11T07:44:24;102784.41;;;-7.07
76381;BMP280;65202;52.520;10.528;2024-01-11T07:46:51;102784.38;;;-6.90
76381;BMP280;65202;52.520;10.528;2024-01-11T07:49:22;102786.38;;;-7.04
76381;BMP280;65202;52.520;10.528;2024-01-11T07:51:50;102788.81;;;-6.88
76381;BMP280;65202;52.520;10.528;2024-01-11T07:54:17;102789.25;;;-6.96
76381;BMP280;65202;52.520;10.528;2024-01-11T07:56:44;102800.53;;;-6.96
76381;BMP280;65202;52.520;10.528;2024-01-11T07:59:12;102792.34;;;-6.91
76381;BMP280;65202;52.520;10.528;2024-01-11T08:01:42;102790.53;;;-6.76
76381;BMP280;65202;52.520;10.528;2024-01-11T08:04:10;102788.69;;;-6.61
76381;BMP280;65202;52.520;10.528;2024-01-11T08:06:37;102782.47;;;-6.53
76381;BMP280;65202;52.520;10.528;2024-01-11T08:09:05;102788.06;;;-6.65
76381;BMP280;65202;52.520;10.528;2024-01-11T08:11:32;102787.34;;;-6.48
76381;BMP280;65202;52.520;10.528;2024-01-11T08:14:04;102802.66;;;-6.60
76381;BMP280;65202;52.520;10.528;2024-01-11T08:16:33;102804.41;;;-6.48
76381;BMP280;65202;52.520;10.528;2024-01-11T08:19:00;102787.94;;;-6.32
76381;BMP280;65202;52.520;10.528;2024-01-11T08:21:29;102780.13;;;-6.24
76381;BMP280;65202;52.520;10.528;2024-01-11T08:23:56;102778.84;;;-6.33
76381;BMP280;65202;52.520;10.528;2024-01-11T08:26:29;102785.72;;;-6.31
76381;BMP280;65202;52.520;10.528;2024-01-11T08:28:59;102793.88;;;-6.25
76381;BMP280;65202;52.520;10.528;2024-01-11T08:31:27;102798.03;;;-6.13
76381;BMP280;65202;52.520;10.528;2024-01-11T08:33:54;102792.13;;;-5.92
76381;BMP280;65202;52.520;10.528;2024-01-11T08:36:22;102784.59;;;-5.88
76381;BMP280;65202;52.520;10.528;2024-01-11T08:38:49;102782.81;;;-5.89
76381;BMP280;65202;52.520;10.528;2024-01-11T08:41:17;102788.81;;;-5.63
76381;BMP280;65202;52.520;10.528;2024-01-11T08:43:45;102787.03;;;-5.64
76381;BMP280;65202;52.520;10.528;2024-01-11T08:46:23;102783.28;;;-5.63
76381;BMP280;65202;52.520;10.528;2024-01-11T08:48:54;102795.22;;;-5.59
76381;BMP280;65202;52.520;10.528;2024-01-11T08:51:23;102800.31;;;-5.80
76381;BMP280;65202;52.520;10.528;2024-01-11T08:53:50;102808.19;;;-5.70
76381;BMP280;65202;52.520;10.528;2024-01-11T08:56:18;102801.34;;;-5.73
76381;BMP280;65202;52.520;10.528;2024-01-11T08:58:46;102797.91;;;-5.63
76381;BMP280;65202;52.520;10.528;2024-01-11T09:01:14;102796.66;;;-5.71
76381;BMP280;65202;52.520;10.528;2024-01-11T09:03:42;102797.31;;;-5.72
76381;BMP280;65202;52.520;10.528;2024-01-11T09:06:10;102798.94;;;-5.78
76381;BMP280;65202;52.520;10.528;2024-01-11T09:08:38;102809.16;;;-5.75
76381;BMP280;65202;52.520;10.528;2024-01-11T09:11:05;102813.06;;;-5.70
76381;BMP280;65202;52.520;10.528;2024-01-11T09:13:33;102811.59;;;-5.75
76381;BMP280;65202;52.520;10.528;2024-01-11T09:16:00;102798.59;;;-5.63
76381;BMP280;65202;52.520;10.528;2024-01-11T09:18:28;102787.75;;;-5.71
76381;BMP280;65202;52.520;10.528;2024-01-11T09:20:55;102782.16;;;-5.64
76381;BMP280;65202;52.520;10.528;2024-01-11T09:23:23;102784.00;;;-5.69
76381;BMP280;65202;52.520;10.528;2024-01-11T09:25:51;102786.78;;;-5.61
76381;BMP280;65202;52.520;10.528;2024-01-11T09:28:18;102785.88;;;-5.56
76381;BMP280;65202;52.520;10.528;2024-01-11T09:30:46;102775.81;;;-5.46
76381;BMP280;65202;52.520;10.528;2024-01-11T09:33:13;102778.47;;;-5.45
76381;BMP280;65202;52.520;10.528;2024-01-11T09:35:41;102780.91;;;-5.45
76381;BMP280;65202;52.520;10.528;2024-01-11T09:38:08;102774.72;;;-5.48
76381;BMP280;65202;52.520;10.528;2024-01-11T09:40:36;102774.16;;;-5.35
76381;BMP280;65202;52.520;10.528;2024-01-11T09:43:04;102766.19;;;-5.34
76381;BMP280;65202;52.520;10.528;2024-01-11T09:45:33;102771.94;;;-5.33
76381;BMP280;65202;52.520;10.528;2024-01-11T09:48:02;102773.31;;;-5.41
76381;BMP280;65202;52.520;10.528;2024-01-11T09:50:32;102759.91;;;-5.32
76381;BMP280;65202;52.520;10.528;2024-01-11T09:53:02;102764.34;;;-5.29
76381;BMP280;65202;52.520;10.528;2024-01-11T09:55:32;102763.88;;;-5.27
76381;BMP280;65202;52.520;10.528;2024-01-11T09:58:00;102764.22;;;-5.13
76381;BMP280;65202;52.520;10.528;2024-01-11T10:00:28;102756.44;;;-5.16
76381;BMP280;65202;52.520;10.528;2024-01-11T10:02:55;102753.59;;;-5.19
76381;BMP280;65202;52.520;10.528;2024-01-11T10:05:23;102759.34;;;-5.13
76381;BMP280;65202;52.520;10.528;2024-01-11T10:07:51;102757.66;;;-5.01
76381;BMP280;65202;52.520;10.528;2024-01-11T10:10:18;102742.75;;;-5.03
76381;BMP280;65202;52.520;10.528;2024-01-11T10:12:47;102744.81;;;-5.06
76381;BMP280;65202;52.520;10.528;2024-01-11T10:15:14;102744.34;;;-4.86
76381;BMP280;65202;52.520;10.528;2024-01-11T10:17:43;102759.03;;;-4.86
76381;BMP280;65202;52.520;10.528;2024-01-11T10:20:12;102754.66;;;-4.94
76381;BMP280;65202;52.520;10.528;2024-01-11T10:22:42;102750.06;;;-4.80
76381;BMP280;65202;52.520;10.528;2024-01-11T10:25:14;102756.53;;;-4.80
76381;BMP280;65202;52.520;10.528;2024-01-11T10:27:44;102760.31;;;-4.82
76381;BMP280;65202;52.520;10.528;2024-01-11T10:30:14;102751.78;;;-4.73
76381;BMP280;65202;52.520;10.528;2024-01-11T10:32:45;102742.34;;;-4.65
76381;BMP280;65202;52.520;10.528;2024-01-11T10:35:16;102727.34;;;-4.55
76381;BMP280;65202;52.520;10.528;2024-01-11T10:37:50;102735.47;;;-4.49
76381;BMP280;65202;52.520;10.528;2024-01-11T10:40:21;102747.19;;;-4.41
76381;BMP280;65202;52.520;10.528;2024-01-11T10:42:52;102751.91;;;-4.31
76381;BMP280;65202;52.520;10.528;2024-01-11T10:45:21;102758.28;;;-4.26
76381;BMP280;65202;52.520;10.528;2024-01-11T10:48:15;102757.47;;;-4.14
76381;BMP280;65202;52.520;10.528;2024-01-11T10:50:45;102752.88;;;-4.18
76381;BMP280;65202;52.520;10.528;2024-01-11T10:53:23;102745.91;;;-4.15
76381;BMP280;65202;52.520;10.528;2024-01-11T10:55:57;102745.38;;;-4.25
76381;BMP280;65202;52.520;10.528;2024-01-11T10:58:26;102747.25;;;-4.17
76381;BMP280;65202;52.520;10.528;2024-01-11T11:00:54;102750.72;;;-4.09
76381;BMP280;65202;52.520;10.528;2024-01-11T11:03:26;102735.31;;;-4.03
76381;BMP280;65202;52.520;10.528;2024-01-11T11:05:56;102730.47;;;-4.08
76381;BMP280;65202;52.520;10.528;2024-01-11T11:08:25;102717.22;;;-3.98
76381;BMP280;65202;52.520;10.528;2024-01-11T11:10:58;102703.50;;;-4.03
76381;BMP280;65202;52.520;10.528;2024-01-11T11:13:27;102710.25;;;-3.95
76381;BMP280;65202;52.520;10.528;2024-01-11T11:15:55;102718.66;;;-3.93
76381;BMP280;65202;52.520;10.528;2024-01-11T11:18:28;102715.81;;;-3.96
76381;BMP280;65202;52.520;10.528;2024-01-11T11:20:56;102707.53;;;-3.91
76381;BMP280;65202;52.520;10.528;2024-01-11T11:23:24;102707.34;;;-3.92
76381;BMP280;65202;52.520;10.528;2024-01-11T11:25:54;102700.09;;;-3.98
76381;BMP280;65202;52.520;10.528;2024-01-11T11:28:25;102698.78;;;-4.01
76381;BMP280;65202;52.520;10.528;2024-01-11T11:30:53;102702.25;;;-3.94
76381;BMP280;65202;52.520;10.528;2024-01-11T11:33:23;102698.19;;;-4.06
76381;BMP280;65202;52.520;10.528;2024-01-11T11:35:53;102705.38;;;-3.95
76381;BMP280;65202;52.520;10.528;2024-01-11T11:38:26;102703.31;;;-3.92
76381;BMP280;65202;52.520;10.528;2024-01-11T11:41:02;102711.44;;;-3.86
76381;BMP280;65202;52.520;10.528;2024-01-11T11:43:31;102707.75;;;-3.77
76381;BMP280;65202;52.520;10.528;2024-01-11T11:45:59;102699.34;;;-3.79
76381;BMP280;65202;52.520;10.528;2024-01-11T11:51:06;102679.00;;;-3.60
76381;BMP280;65202;52.520;10.528;2024-01-11T11:53:33;102688.28;;;-3.58
76381;BMP280;65202;52.520;10.528;2024-01-11T11:56:02;102679.88;;;-3.47
76381;BMP280;65202;52.520;10.528;2024-01-11T11:58:31;102680.84;;;-3.52
76381;BMP280;65202;52.520;10.528;2024-01-11T12:01:01;102675.06;;;-3.53
76381;BMP280;65202;52.520;10.528;2024-01-11T12:03:34;102681.94;;;-3.50
76381;BMP280;65202;52.520;10.528;2024-01-11T12:06:07;102683.91;;;-3.48
76381;BMP280;65202;52.520;10.528;2024-01-11T12:08:37;102700.13;;;-3.48
76381;BMP280;65202;52.520;10.528;2024-01-11T12:11:08;102705.31;;;-3.52
76381;BMP280;65202;52.520;10.528;2024-01-11T12:13:37;102702.59;;;-3.48
76381;BMP280;65202;52.520;10.528;2024-01-11T12:16:05;102686.81;;;-3.50
76381;BMP280;65202;52.520;10.528;2024-01-11T12:18:32;102689.28;;;-3.50
76381;BMP280;65202;52.520;10.528;2024-01-11T12:21:00;102696.63;;;-3.50
76381;BMP280;65202;52.520;10.528;2024-01-11T12:23:28;102697.97;;;-3.52
76381;BMP280;65202;52.520;10.528;2024-01-11T12:26:03;102690.75;;;-3.45
76381;BMP280;65202;52.520;10.528;2024-01-11T12:28:35;102681.81;;;-3.45
76381;BMP280;65202;52.520;10.528;2024-01-11T12:31:02;102665.47;;;-3.39
76381;BMP280;65202;52.520;10.528;2024-01-11T12:33:32;102665.06;;;-3.42
76381;BMP280;65202;52.520;10.528;2024-01-11T12:36:06;102668.47;;;-3.34
76381;BMP280;65202;52.520;10.528;2024-01-11T12:38:35;102659.84;;;-3.38
76381;BMP280;65202;52.520;10.528;2024-01-11T12:41:04;102665.66;;;-3.37
76381;BMP280;65202;52.520;10.528;2024-01-11T12:43:33;102652.31;;;-3.27
76381;BMP280;65202;52.520;10.528;2024-01-11T12:46:02;102639.97;;;-3.21
76381;BMP280;65202;52.520;10.528;2024-01-11T12:48:30;102636.81;;;-3.20
76381;BMP280;65202;52.520;10.528;2024-01-11T12:50:58;102632.31;;;-3.17
76381;BMP280;65202;52.520;10.528;2024-01-11T12:53:40;102622.59;;;-3.23
76381;BMP280;65202;52.520;10.528;2024-01-11T12:56:09;102615.53;;;-3.14
76381;BMP280;65202;52.520;10.528;2024-01-11T12:58:40;102624.16;;;-3.11
76381;BMP280;65202;52.520;10.528;2024-01-11T13:01:09;102610.25;;;-3.05
76381;BMP280;65202;52.520;10.528;2024-01-11T13:03:39;102606.38;;;-3.03
76381;BMP280;65202;52.520;10.528;2024-01-11T13:06:10;102609.03;;;-3.02
76381;BMP280;65202;52.520;10.528;2024-01-11T13:08:39;102609.03;;;-3.02
76381;BMP280;65202;52.520;10.528;2024-01-11T13:11:10;102612.94;;;-2.97
76381;BMP280;65202;52.520;10.528;2024-01-11T13:13:41;102607.28;;;-3.03
76381;BMP280;65202;52.520;10.528;2024-01-11T13:16:08;102617.16;;;-2.96
76381;BMP280;65202;52.520;10.528;2024-01-11T13:18:41;102609.81;;;-2.96
76381;BMP280;65202;52.520;10.528;2024-01-11T13:21:09;102618.91;;;-2.95
76381;BMP280;65202;52.520;10.528;2024-01-11T13:23:37;102609.47;;;-2.92
76381;BMP280;65202;52.520;10.528;2024-01-11T13:26:07;102614.28;;;-2.86
76381;BMP280;65202;52.520;10.528;2024-01-11T13:28:36;102616.25;;;-2.84
76381;BMP280;65202;52.520;10.528;2024-01-11T13:31:03;102627.50;;;-2.79
76381;BMP280;65202;52.520;10.528;2024-01-11T13:33:31;102642.22;;;-2.79
76381;BMP280;65202;52.520;10.528;2024-01-11T13:35:58;102640.44;;;-2.80
76381;BMP280;65202;52.520;10.528;2024-01-11T13:38:26;102637.88;;;-2.74
76381;BMP280;65202;52.520;10.528;2024-01-11T13:40:54;102644.34;;;-2.75
76381;BMP280;65202;52.520;10.528;2024-01-11T13:43:21;102649.63;;;-2.72
76381;BMP280;65202;52.520;10.528;2024-01-11T13:45:50;102641.59;;;-2.71
76381;BMP280;65202;52.520;10.528;2024-01-11T13:48:17;102644.03;;;-2.71
76381;BMP280;65202;52.520;10.528;2024-01-11T13:50:46;102640.94;;;-2.63
76381;BMP280;65202;52.520;10.528;2024-01-11T13:53:13;102647.63;;;-2.62
76381;BMP280;65202;52.520;10.528;2024-01-11T13:55:41;102639.44;;;-2.55